Time;durP1;ratioP1;P1;durP2;ratioP2;P2;SDS_P1;SDS_P2;PMS_P1;PMS_P2;Temp;Humidity;BMP_temperature;BMP_pressure;BME280_temperature;BME280_humidity;BME280_pressure;Samples;Min_cycle;Max_cycle;Signal;HPM_P1;HPM_P2
2022/05/16 00:00:15;;;;;;;5.65;2.03;;;21.00;70.90;;;;;;7339883;19;108333;-82
2022/05/16 00:02:42;;;;;;;10.35;1.90;;;21.00;71.00;;;;;;7338167;19;108173;-79
2022/05/16 00:05:09;;;;;;;4.93;1.92;;;20.90;72.00;;;;;;7337954;19;108194;-79
2022/05/16 00:07:37;;;;;;;9.05;1.75;;;20.90;71.30;;;;;;7342765;19;108306;-80
2022/05/16 00:10:06;;;;;;;14.65;2.00;;;20.80;71.30;;;;;;7338998;19;108381;-79
2022/05/16 00:12:33;;;;;;;8.00;2.10;;;20.80;71.60;;;;;;7336957;19;108599;-79
2022/05/16 00:15:02;;;;;;;7.95;1.73;;;20.80;71.40;;;;;;7334946;19;110881;-79
2022/05/16 00:17:29;;;;;;;4.82;1.80;;;20.80;71.40;;;;;;7338463;19;108527;-82
2022/05/16 00:19:56;;;;;;;8.70;1.77;;;20.80;71.50;;;;;;7338273;19;108194;-81
2022/05/16 00:22:25;;;;;;;8.98;2.20;;;20.70;71.90;;;;;;7339110;19;109376;-81
2022/05/16 00:24:52;;;;;;;7.60;1.67;;;20.70;71.90;;;;;;7338731;19;108061;-79
2022/05/16 00:27:19;;;;;;;6.35;1.90;;;20.70;72.10;;;;;;7343366;19;108581;-79
2022/05/16 00:29:46;;;;;;;7.20;2.22;;;20.60;71.70;;;;;;7337950;19;107633;-81
2022/05/16 00:32:13;;;;;;;6.93;1.60;;;20.60;71.80;;;;;;7336263;19;108532;-81
2022/05/16 00:34:40;;;;;;;2.97;1.55;;;20.60;71.50;;;;;;7337010;19;109222;-82
2022/05/16 00:37:07;;;;;;;4.05;1.58;;;20.60;71.50;;;;;;7337197;19;108012;-81
2022/05/16 00:39:35;;;;;;;4.75;1.70;;;20.60;71.80;;;;;;7337046;19;107737;-82
2022/05/16 00:42:02;;;;;;;4.63;1.63;;;20.50;72.10;;;;;;7337599;19;109100;-81
2022/05/16 00:44:29;;;;;;;5.15;1.50;;;20.40;72.30;;;;;;7336773;19;107867;-82
2022/05/16 00:46:56;;;;;;;6.65;1.95;;;20.40;72.70;;;;;;7334625;19;108242;-81
2022/05/16 00:49:30;;;;;;;3.63;1.63;;;20.30;72.90;;;;;;7343080;19;109271;-82
2022/05/16 00:52:07;;;;;;;7.03;1.73;;;20.30;73.10;;;;;;7336767;19;107456;-82
2022/05/16 00:54:59;;;;;;;6.05;2.17;;;20.30;73.30;;;;;;7334233;19;108796;-82
2022/05/16 00:57:37;;;;;;;9.88;2.20;;;20.20;74.00;;;;;;7336550;19;111154;-82
2022/05/16 01:00:11;;;;;;;4.43;1.60;;;20.10;74.50;;;;;;7334664;19;108406;-82
2022/05/16 01:05:27;;;;;;;3.35;1.70;;;20.00;74.60;;;;;;7342068;19;109143;-82
2022/05/16 01:08:00;;;;;;;6.25;1.83;;;19.90;74.70;;;;;;7341730;19;108097;-82
2022/05/16 01:10:27;;;;;;;10.20;1.95;;;19.90;75.10;;;;;;7342445;19;108669;-82
2022/05/16 01:12:54;;;;;;;3.30;1.60;;;19.90;74.90;;;;;;7348024;19;108346;-82
2022/05/16 01:15:29;;;;;;;5.10;1.73;;;19.90;74.80;;;;;;7340962;19;108971;-79
2022/05/16 01:17:57;;;;;;;3.88;1.63;;;19.80;75.00;;;;;;7339666;19;107776;-81
2022/05/16 01:20:42;;;;;;;5.90;2.10;;;19.80;74.90;;;;;;7342831;19;108043;-82
2022/05/16 01:23:14;;;;;;;3.00;1.70;;;19.80;74.80;;;;;;7342764;19;108452;-82
2022/05/16 01:25:41;;;;;;;4.88;1.92;;;19.80;74.50;;;;;;7341600;19;111587;-82
2022/05/16 01:28:08;;;;;;;5.50;2.40;;;19.80;75.20;;;;;;7342723;19;107626;-81
2022/05/16 01:30:46;;;;;;;6.32;2.03;;;19.80;75.30;;;;;;7342877;19;113183;-82
2022/05/16 01:33:15;;;;;;;5.40;1.63;;;19.70;75.20;;;;;;7341755;19;108042;-82
2022/05/16 01:35:43;;;;;;;4.68;1.65;;;19.70;75.80;;;;;;7343669;19;107400;-82
2022/05/16 01:38:23;;;;;;;6.63;1.80;;;19.70;76.20;;;;;;7343243;19;107248;-82
2022/05/16 01:40:58;;;;;;;4.32;1.83;;;19.60;75.90;;;;;;7341116;19;108157;-82
2022/05/16 01:43:29;;;;;;;3.80;1.88;;;19.60;76.50;;;;;;7343060;19;109271;-81
2022/05/16 01:45:56;;;;;;;4.45;2.10;;;19.50;76.50;;;;;;7343576;19;108486;-82
2022/05/16 01:48:24;;;;;;;4.03;1.80;;;19.50;76.30;;;;;;7342951;19;107446;-82
2022/05/16 01:50:58;;;;;;;4.72;2.25;;;19.60;76.10;;;;;;7341664;19;108936;-82
2022/05/16 01:53:26;;;;;;;5.20;2.03;;;19.60;76.90;;;;;;7343987;19;108121;-82
2022/05/16 01:55:53;;;;;;;5.20;1.98;;;19.60;76.70;;;;;;7340668;19;108448;-82
2022/05/16 01:58:21;;;;;;;4.90;2.00;;;19.60;76.90;;;;;;7348009;19;109953;-82
2022/05/16 02:00:49;;;;;;;3.97;1.75;;;19.60;76.70;;;;;;7343214;19;108027;-81
2022/05/16 02:03:17;;;;;;;5.15;1.60;;;19.60;76.30;;;;;;7342741;19;109334;-83
2022/05/16 02:05:45;;;;;;;3.78;1.80;;;19.60;76.30;;;;;;7339288;19;107920;-81
2022/05/16 02:08:13;;;;;;;6.80;1.80;;;19.60;76.20;;;;;;7340564;19;108092;-82
2022/05/16 02:10:41;;;;;;;4.97;1.90;;;19.60;77.20;;;;;;7340250;19;109446;-82
2022/05/16 02:13:09;;;;;;;6.68;1.73;;;19.50;77.30;;;;;;7339150;19;108640;-81
2022/05/16 02:15:37;;;;;;;6.38;1.63;;;19.50;77.60;;;;;;7338467;19;108609;-82
2022/05/16 02:18:06;;;;;;;5.78;1.90;;;19.50;77.80;;;;;;7337507;19;109015;-81
2022/05/16 02:20:33;;;;;;;4.82;1.80;;;19.40;77.70;;;;;;7346865;19;108927;-81
2022/05/16 02:25:48;;;;;;;4.43;1.70;;;19.40;78.00;;;;;;7342682;19;108055;-82
2022/05/16 02:28:17;;;;;;;4.13;1.50;;;19.40;77.90;;;;;;7339936;19;108777;-81
2022/05/16 02:30:50;;;;;;;4.05;1.85;;;19.30;78.00;;;;;;7340041;19;109458;-82
2022/05/16 02:33:18;;;;;;;4.28;1.83;;;19.30;78.20;;;;;;7339797;19;108311;-82
2022/05/16 02:35:46;;;;;;;3.08;1.63;;;19.30;78.70;;;;;;7338597;19;107255;-82
2022/05/16 02:38:14;;;;;;;4.57;1.50;;;19.20;78.60;;;;;;7341048;19;109225;-82
2022/05/16 02:40:42;;;;;;;5.80;2.15;;;19.20;78.90;;;;;;7346890;19;107923;-81
2022/05/16 02:43:09;;;;;;;4.65;1.73;;;19.20;79.10;;;;;;7341025;19;110477;-82
2022/05/16 02:45:37;;;;;;;3.97;1.88;;;19.20;79.30;;;;;;7339586;19;108002;-81
2022/05/16 02:48:05;;;;;;;4.43;2.00;;;19.10;79.10;;;;;;7341730;19;108765;-81
2022/05/16 02:50:32;;;;;;;5.32;1.90;;;19.10;79.50;;;;;;7339970;19;112069;-81
2022/05/16 02:52:59;;;;;;;10.23;1.98;;;19.10;79.40;;;;;;7340542;19;107972;-81
2022/05/16 02:55:26;;;;;;;5.15;2.25;;;19.00;79.40;;;;;;7340059;19;107596;-81
2022/05/16 02:57:53;;;;;;;4.32;2.10;;;19.00;80.20;;;;;;7341163;19;108964;-82
2022/05/16 03:00:21;;;;;;;4.47;1.67;;;18.90;80.30;;;;;;7339260;19;108335;-82
2022/05/16 03:02:48;;;;;;;6.00;2.40;;;18.90;80.30;;;;;;7342134;19;108259;-82
2022/05/16 03:05:15;;;;;;;9.93;1.98;;;18.80;80.40;;;;;;7339886;19;110220;-81
2022/05/16 03:07:43;;;;;;;5.75;2.17;;;18.80;80.20;;;;;;7337702;19;108557;-81
2022/05/16 03:10:15;;;;;;;6.43;2.05;;;18.70;80.20;;;;;;7338386;19;108959;-82
2022/05/16 03:12:45;;;;;;;3.38;1.90;;;18.70;80.60;;;;;;7340414;19;108201;-82
2022/05/16 03:15:14;;;;;;;3.47;1.98;;;18.70;80.70;;;;;;7340550;19;108173;-82
2022/05/16 03:17:42;;;;;;;4.90;1.85;;;18.70;80.70;;;;;;7339926;19;109364;-79
2022/05/16 03:20:13;;;;;;;2.90;1.63;;;18.60;81.00;;;;;;7339459;19;108635;-81
2022/05/16 03:22:41;;;;;;;4.25;1.80;;;18.60;81.00;;;;;;7339651;19;111331;-82
2022/05/16 03:25:09;;;;;;;9.57;2.30;;;18.60;81.50;;;;;;7347137;19;108784;-81
2022/05/16 03:27:36;;;;;;;8.50;2.33;;;18.50;81.90;;;;;;7340990;19;108175;-81
2022/05/16 03:30:05;;;;;;;3.28;1.90;;;18.50;82.60;;;;;;7340145;19;109048;-81
2022/05/16 03:32:32;;;;;;;6.10;2.10;;;18.40;83.10;;;;;;7338446;19;108197;-81
2022/05/16 03:34:59;;;;;;;5.63;2.10;;;18.40;82.80;;;;;;7340555;19;108798;-81
2022/05/16 03:37:26;;;;;;;3.97;1.73;;;18.40;83.00;;;;;;7338165;19;108965;-81
2022/05/16 03:42:38;;;;;;;3.55;2.10;;;18.40;83.60;;;;;;7340965;19;107441;-81
2022/05/16 03:45:06;;;;;;;4.20;1.80;;;18.30;85.00;;;;;;7337687;19;108202;-81
2022/05/16 03:47:33;;;;;;;3.05;1.95;;;18.30;84.10;;;;;;7344856;19;108861;-81
2022/05/16 03:50:00;;;;;;;4.80;2.30;;;18.30;84.50;;;;;;7340145;19;112333;-81
2022/05/16 03:52:27;;;;;;;6.00;1.67;;;18.30;84.20;;;;;;7340749;19;107999;-81
2022/05/16 03:54:54;;;;;;;4.25;2.00;;;18.30;84.60;;;;;;7340507;19;112011;-81
2022/05/16 03:57:22;;;;;;;12.65;2.72;;;18.20;85.10;;;;;;7337881;19;112929;-81
2022/05/16 03:59:49;;;;;;;11.27;2.50;;;18.20;85.20;;;;;;7338997;19;107377;-81
2022/05/16 04:02:16;;;;;;;8.25;2.03;;;18.20;85.10;;;;;;7337931;19;108224;-81
2022/05/16 04:04:43;;;;;;;7.38;2.28;;;18.20;85.60;;;;;;7338344;19;108040;-81
2022/05/16 04:07:11;;;;;;;8.50;2.17;;;18.30;85.40;;;;;;7339922;19;108026;-81
2022/05/16 04:09:38;;;;;;;13.20;2.30;;;18.30;85.60;;;;;;7343851;19;108634;-81
2022/05/16 04:12:06;;;;;;;6.53;2.17;;;18.30;85.90;;;;;;7336803;19;108475;-81
2022/05/16 04:14:34;;;;;;;8.65;2.03;;;18.30;85.80;;;;;;7338309;19;108503;-81
2022/05/16 04:17:01;;;;;;;7.80;2.28;;;18.40;85.90;;;;;;7335095;19;109202;-81
2022/05/16 04:19:28;;;;;;;9.30;2.25;;;18.40;86.20;;;;;;7338393;19;107934;-81
2022/05/16 04:21:55;;;;;;;11.95;2.17;;;18.50;86.60;;;;;;7338386;19;108546;-81
2022/05/16 04:24:23;;;;;;;13.88;2.63;;;18.50;86.30;;;;;;7339157;19;109205;-82
2022/05/16 04:26:50;;;;;;;10.77;2.35;;;18.60;87.40;;;;;;7338994;19;108246;-81
2022/05/16 04:29:17;;;;;;;9.10;2.42;;;18.60;86.80;;;;;;7338927;19;109577;-81
2022/05/16 04:31:44;;;;;;;9.43;2.53;;;18.60;86.50;;;;;;7343162;19;109700;-81
2022/05/16 04:34:11;;;;;;;14.88;2.65;;;18.70;86.50;;;;;;7339630;19;107699;-81
2022/05/16 04:36:39;;;;;;;5.15;2.38;;;18.80;87.90;;;;;;7336093;19;110582;-81
2022/05/16 04:39:06;;;;;;;7.50;2.33;;;18.80;88.80;;;;;;7340463;19;107959;-81
2022/05/16 04:44:19;;;;;;;8.38;2.28;;;18.80;88.20;;;;;;7337759;19;108831;-81
2022/05/16 04:46:46;;;;;;;5.20;2.53;;;18.90;88.20;;;;;;7338507;19;107481;-81
2022/05/16 04:49:13;;;;;;;4.03;2.17;;;18.90;88.70;;;;;;7336560;19;107903;-81
2022/05/16 04:51:40;;;;;;;5.70;1.80;;;19.00;87.80;;;;;;7342702;19;109888;-81
2022/05/16 04:54:08;;;;;;;20.70;3.33;;;19.00;88.20;;;;;;7339187;19;111530;-81
2022/05/16 04:56:36;;;;;;;24.38;3.78;;;19.00;90.40;;;;;;7337233;19;109292;-81
2022/05/16 04:59:03;;;;;;;14.75;2.85;;;19.00;90.50;;;;;;7339059;19;107912;-80
2022/05/16 05:01:30;;;;;;;11.07;3.00;;;19.00;90.30;;;;;;7336968;19;108826;-80
2022/05/16 05:03:57;;;;;;;15.55;2.58;;;19.00;90.00;;;;;;7337739;19;108247;-82
2022/05/16 05:06:24;;;;;;;7.47;2.40;;;19.10;90.00;;;;;;7337605;19;108263;-81
2022/05/16 05:08:51;;;;;;;17.27;2.60;;;19.10;90.20;;;;;;7337262;19;109632;-81
2022/05/16 05:16:51;;;;;;;12.40;2.78;;;19.20;90.60;;;;;;7334848;19;109211;-81
2022/05/16 05:19:18;;;;;;;14.95;2.75;;;19.20;90.40;;;;;;7336806;19;108413;-81
2022/05/16 05:21:45;;;;;;;9.80;2.63;;;19.30;90.80;;;;;;7337682;19;108393;-82
2022/05/16 05:24:12;;;;;;;11.13;2.97;;;19.30;90.50;;;;;;7337637;19;107897;-80
2022/05/16 05:26:39;;;;;;;11.02;2.70;;;19.30;90.70;;;;;;7335504;19;107918;-85
2022/05/16 05:29:06;;;;;;;10.88;2.60;;;19.40;91.10;;;;;;7338801;19;108971;-85
2022/05/16 05:31:33;;;;;;;12.93;2.92;;;19.40;91.10;;;;;;7336194;19;108150;-87
2022/05/16 05:34:01;;;;;;;7.80;2.90;;;19.40;91.00;;;;;;7337320;19;109292;-87
2022/05/16 05:36:28;;;;;;;6.82;2.78;;;19.50;91.50;;;;;;7339636;19;108184;-86
2022/05/16 05:38:57;;;;;;;8.18;2.70;;;19.60;91.80;;;;;;7326818;19;110027;-86
2022/05/16 05:41:24;;;;;;;9.50;2.70;;;19.60;92.20;;;;;;7325622;19;110388;-86
2022/05/16 05:43:51;;;;;;;10.93;2.80;;;19.60;92.20;;;;;;7322276;19;109419;-87
2022/05/16 05:46:18;;;;;;;9.60;2.70;;;19.70;92.30;;;;;;7319565;19;108532;-87
2022/05/16 05:48:46;;;;;;;8.70;3.10;;;19.80;92.30;;;;;;7330469;19;108445;-85
2022/05/16 05:51:14;;;;;;;14.63;2.90;;;19.80;92.60;;;;;;7332079;19;108536;-85
2022/05/16 05:53:43;;;;;;;12.10;3.20;;;19.90;92.30;;;;;;7340350;19;107962;-85
2022/05/16 05:56:12;;;;;;;12.07;2.53;;;20.00;92.20;;;;;;7342776;19;111156;-85
2022/05/16 05:58:40;;;;;;;6.45;2.80;;;20.10;92.60;;;;;;7345044;19;108870;-84
2022/05/16 06:01:08;;;;;;;11.73;2.50;;;20.10;92.60;;;;;;7343148;19;108602;-84
2022/05/16 06:03:36;;;;;;;9.88;2.75;;;20.20;92.40;;;;;;7341993;19;109598;-83
2022/05/16 06:06:03;;;;;;;12.15;2.60;;;20.30;92.60;;;;;;7342025;19;107094;-83
2022/05/16 06:08:30;;;;;;;12.90;2.80;;;20.40;92.90;;;;;;7344786;19;111271;-84
2022/05/16 06:10:58;;;;;;;10.10;2.67;;;20.50;92.70;;;;;;7343531;19;109253;-83
2022/05/16 06:13:25;;;;;;;9.35;2.60;;;20.60;92.80;;;;;;7342491;19;107165;-83
2022/05/16 06:15:52;;;;;;;7.97;2.47;;;20.60;92.80;;;;;;7344676;19;107530;-84
2022/05/16 06:18:19;;;;;;;10.13;2.92;;;20.70;92.70;;;;;;7345546;19;109410;-84
2022/05/16 06:20:46;;;;;;;9.20;3.10;;;20.70;92.90;;;;;;7350700;19;108258;-84
2022/05/16 06:23:13;;;;;;;11.35;2.60;;;20.70;93.10;;;;;;7343559;19;108862;-84
2022/05/16 06:25:42;;;;;;;5.95;2.65;;;20.80;93.10;;;;;;7345244;19;111007;-83
2022/05/16 06:28:13;;;;;;;10.35;2.67;;;20.80;93.10;;;;;;7345213;19;108232;-83
2022/05/16 06:30:42;;;;;;;9.98;2.67;;;20.90;93.20;;;;;;7344988;19;108016;-83
2022/05/16 06:33:10;;;;;;;12.05;2.67;;;20.90;93.30;;;;;;7345876;19;107932;-82
2022/05/16 06:35:38;;;;;;;5.35;2.83;;;21.00;93.10;;;;;;7345035;19;108895;-82
2022/05/16 06:38:16;;;;;;;11.98;3.05;;;21.10;93.50;;;;;;7344086;19;109646;-80
2022/05/16 06:40:48;;;;;;;9.13;2.42;;;21.30;93.40;;;;;;7346085;19;108087;-83
2022/05/16 06:43:17;;;;;;;6.40;2.65;;;21.50;93.20;;;;;;7349494;19;108406;-83
2022/05/16 06:45:44;;;;;;;6.00;2.20;;;21.60;93.30;;;;;;7345186;19;109518;-84
2022/05/16 06:48:12;;;;;;;7.28;2.30;;;21.70;93.30;;;;;;7344184;19;108597;-83
2022/05/16 06:50:41;;;;;;;11.77;2.50;;;21.80;93.50;;;;;;7344617;19;109358;-80
2022/05/16 06:53:12;;;;;;;9.25;2.00;;;21.70;93.50;;;;;;7344144;19;107271;-80
2022/05/16 06:55:39;;;;;;;8.10;2.17;;;21.80;93.80;;;;;;7341035;19;108491;-80
2022/05/16 06:58:07;;;;;;;5.03;1.95;;;21.90;93.60;;;;;;7341260;19;109552;-80
2022/05/16 07:00:34;;;;;;;7.25;1.92;;;22.10;93.50;;;;;;7344908;19;107369;-81
2022/05/16 07:03:02;;;;;;;5.88;1.95;;;22.20;93.40;;;;;;7350250;19;107461;-81
2022/05/16 07:05:46;;;;;;;6.28;2.08;;;22.40;93.10;;;;;;7344241;19;107769;-80
2022/05/16 07:08:13;;;;;;;7.60;2.38;;;22.50;92.80;;;;;;7344670;19;111336;-82
2022/05/16 07:10:40;;;;;;;6.93;1.73;;;22.70;93.20;;;;;;7341511;19;108875;-80
2022/05/16 07:13:08;;;;;;;12.93;1.67;;;22.80;93.30;;;;;;7342548;19;108246;-80
2022/05/16 07:15:35;;;;;;;13.68;2.03;;;22.90;92.90;;;;;;7344022;19;108223;-83
2022/05/16 07:18:03;;;;;;;5.35;1.52;;;23.10;92.80;;;;;;7342638;19;110284;-82
2022/05/16 07:20:36;;;;;;;5.10;1.90;;;23.20;92.60;;;;;;7344305;19;106823;-81
2022/05/16 07:23:04;;;;;;;3.70;1.42;;;23.30;92.60;;;;;;7344464;19;108053;-81
2022/05/16 07:27:56;;;;;;;8.05;1.48;;;23.40;92.70;;;;;;7347947;19;107882;-80
2022/05/16 07:28:18;;;;;;;13.50;1.98;;;23.60;92.40;;;;;;7344300;19;108275;-81
2022/05/16 07:30:45;;;;;;;4.22;1.35;;;23.70;92.10;;;;;;7343808;19;108910;-79
2022/05/16 07:33:13;;;;;;;9.73;1.55;;;23.80;92.00;;;;;;7342583;19;107387;-79
2022/05/16 07:35:40;;;;;;;5.63;1.63;;;23.90;91.90;;;;;;7343062;19;108267;-79
2022/05/16 07:38:07;;;;;;;5.43;1.48;;;23.90;91.60;;;;;;7340499;19;107860;-79
2022/05/16 07:40:37;;;;;;;2.83;1.40;;;24.10;91.60;;;;;;7343094;19;107920;-80
2022/05/16 07:43:05;;;;;;;7.60;1.38;;;24.20;91.70;;;;;;7343917;19;109495;-79
2022/05/16 07:45:32;;;;;;;2.78;1.33;;;24.30;91.60;;;;;;7342940;19;109329;-80
2022/05/16 07:48:02;;;;;;;2.67;1.35;;;24.50;91.40;;;;;;7345700;19;107907;-79
2022/05/16 07:50:31;;;;;;;4.72;1.60;;;24.50;91.30;;;;;;7340944;19;111228;-80
2022/05/16 07:52:59;;;;;;;5.35;1.50;;;24.70;91.20;;;;;;7343354;19;107987;-80
2022/05/16 07:55:26;;;;;;;11.18;1.85;;;24.80;90.90;;;;;;7341756;19;109329;-80
2022/05/16 07:57:54;;;;;;;3.72;1.20;;;24.80;90.90;;;;;;7340835;19;108940;-80
2022/05/16 08:00:23;;;;;;;9.88;1.73;;;24.90;90.80;;;;;;7344062;19;108495;-80
2022/05/16 08:02:51;;;;;;;6.93;1.50;;;25.00;90.70;;;;;;7341722;19;109415;-80
2022/05/16 08:05:20;;;;;;;4.50;1.42;;;25.10;90.90;;;;;;7342296;19;108151;-80
2022/05/16 08:10:46;;;;;;;17.67;1.67;;;25.30;90.80;;;;;;7339898;19;108093;-80
2022/05/16 08:13:13;;;;;;;4.32;1.77;;;25.40;90.50;;;;;;7338696;19;107973;-80
2022/05/16 08:15:42;;;;;;;12.02;1.55;;;25.50;90.40;;;;;;7337628;19;108816;-80
2022/05/16 08:18:12;;;;;;;6.82;1.58;;;25.60;90.10;;;;;;7336542;19;109453;-79
2022/05/16 08:20:42;;;;;;;6.95;1.58;;;25.70;90.10;;;;;;7337461;19;107950;-80
2022/05/16 08:23:16;;;;;;;3.10;1.75;;;25.80;90.10;;;;;;7338455;19;108237;-80
2022/05/16 08:25:45;;;;;;;5.93;1.40;;;25.80;89.90;;;;;;7338440;19;108878;-81
2022/05/16 08:28:13;;;;;;;5.90;1.88;;;25.90;89.90;;;;;;7337276;19;108256;-80
2022/05/16 08:30:41;;;;;;;13.65;1.75;;;26.00;89.60;;;;;;7337839;19;108179;-79
2022/05/16 08:33:08;;;;;;;6.07;1.90;;;26.00;89.00;;;;;;7342746;19;109134;-80
2022/05/16 08:35:35;;;;;;;8.55;1.77;;;25.90;88.90;;;;;;7335485;19;110110;-80
2022/05/16 08:41:05;;;;;;;16.02;1.95;;;25.60;89.10;;;;;;7337394;19;107961;-80
2022/05/16 08:43:35;;;;;;;11.90;2.08;;;25.50;89.20;;;;;;7337661;19;112371;-80
2022/05/16 08:46:17;;;;;;;13.07;2.22;;;25.40;89.60;;;;;;7336480;19;111355;-79
2022/05/16 08:48:49;;;;;;;12.88;2.75;;;25.40;90.10;;;;;;7341506;19;110036;-80
2022/05/16 08:51:30;;;;;;;11.48;1.70;;;25.50;90.60;;;;;;7340817;19;107863;-80
2022/05/16 08:54:24;;;;;;;8.20;1.92;;;25.80;90.60;;;;;;7340224;19;108928;-81
2022/05/16 08:56:56;;;;;;;16.75;2.28;;;25.90;90.00;;;;;;7344567;19;107294;-80
2022/05/16 08:59:25;;;;;;;17.83;2.03;;;25.90;89.80;;;;;;7340537;19;108128;-80
2022/05/16 09:01:57;;;;;;;6.18;1.92;;;25.90;89.80;;;;;;7340553;19;107287;-80
2022/05/16 09:04:48;;;;;;;13.38;2.38;;;25.90;90.00;;;;;;7339996;19;108576;-80
2022/05/16 09:07:29;;;;;;;8.07;1.98;;;25.90;89.90;;;;;;7340629;19;109272;-80
2022/05/16 09:10:02;;;;;;;9.68;2.35;;;25.90;90.30;;;;;;7340481;19;107644;-80
2022/05/16 09:12:41;;;;;;;9.82;2.00;;;26.00;91.00;;;;;;7338630;19;107457;-80
2022/05/16 09:15:12;;;;;;;9.23;2.30;;;26.20;90.60;;;;;;7338417;19;108988;-80
2022/05/16 09:17:58;;;;;;;5.25;2.10;;;26.30;90.70;;;;;;7342162;19;111680;-80
2022/05/16 09:20:32;;;;;;;13.75;2.50;;;26.30;90.30;;;;;;7340446;19;109186;-80
2022/05/16 09:23:18;;;;;;;4.32;1.83;;;26.40;90.50;;;;;;7348633;19;108958;-80
2022/05/16 09:26:13;;;;;;;9.63;2.30;;;26.50;90.80;;;;;;7345746;19;108468;-82
2022/05/16 09:28:59;;;;;;;8.80;2.15;;;26.70;90.60;;;;;;7347701;19;108272;-80
2022/05/16 09:31:33;;;;;;;6.45;1.98;;;26.70;89.90;;;;;;7347434;19;108067;-80
2022/05/16 09:34:01;;;;;;;10.95;2.40;;;26.70;89.20;;;;;;7347295;19;107289;-80
2022/05/16 09:36:34;;;;;;;9.35;2.35;;;26.60;89.70;;;;;;7346436;19;107927;-79
2022/05/16 09:39:04;;;;;;;9.90;2.20;;;26.60;89.80;;;;;;7345250;19;108269;-80
2022/05/16 09:41:44;;;;;;;8.00;2.33;;;26.40;90.50;;;;;;7351956;19;107377;-80
2022/05/16 09:44:31;;;;;;;4.80;2.08;;;26.40;90.20;;;;;;7344731;19;111324;-79
2022/05/16 09:47:22;;;;;;;5.07;2.53;;;26.40;90.20;;;;;;7346197;19;108226;-80
2022/05/16 09:50:09;;;;;;;8.85;2.50;;;26.30;90.20;;;;;;7344651;19;109126;-80
2022/05/16 09:52:49;;;;;;;;;;;26.20;90.50;;;;;;7345453;19;107213;-80
2022/05/16 09:55:30;;;;;;;5.50;2.38;;;26.10;90.20;;;;;;7349711;19;107899;-80
2022/05/16 09:58:14;;;;;;;6.68;2.22;;;26.20;90.50;;;;;;7344202;19;109220;-80
2022/05/16 10:00:57;;;;;;;4.95;2.63;;;26.30;90.30;;;;;;7344949;19;108051;-80
2022/05/16 10:03:32;;;;;;;9.90;2.78;;;26.30;90.10;;;;;;7346618;19;108219;-80
2022/05/16 10:06:10;;;;;;;15.65;3.10;;;26.40;90.00;;;;;;7351524;19;109265;-80
2022/05/16 10:08:37;;;;;;;19.10;3.03;;;26.30;90.00;;;;;;7344311;19;108438;-80
2022/05/16 10:11:08;;;;;;;14.82;2.83;;;26.10;90.30;;;;;;7344157;19;110002;-80
2022/05/16 10:13:36;;;;;;;6.55;3.10;;;26.00;90.80;;;;;;7344183;19;109243;-80
2022/05/16 10:16:07;;;;;;;5.25;2.92;;;26.00;90.70;;;;;;7345710;19;107869;-81
2022/05/16 10:18:48;;;;;;;11.40;3.53;;;26.00;90.50;;;;;;7343638;19;108987;-80
2022/05/16 10:21:28;;;;;;;7.43;3.65;;;26.20;90.70;;;;;;7345463;19;108228;-81
2022/05/16 10:23:58;;;;;;;7.32;2.92;;;26.20;90.30;;;;;;7345648;19;109553;-80
2022/05/16 10:26:28;;;;;;;7.22;3.42;;;26.20;90.50;;;;;;7345314;19;108931;-80
2022/05/16 10:28:59;;;;;;;8.90;3.28;;;26.10;90.60;;;;;;7350314;19;107905;-80
2022/05/16 10:34:27;;;;;;;4.70;3.25;;;26.00;90.50;;;;;;7344323;19;107913;-79
2022/05/16 10:36:56;;;;;;;9.23;3.53;;;25.70;90.80;;;;;;7345833;19;108223;-80
2022/05/16 10:39:26;;;;;;;15.95;3.55;;;25.60;90.90;;;;;;7340734;19;108819;-80
2022/05/16 10:42:02;;;;;;;15.80;4.30;;;25.40;91.30;;;;;;7343804;19;107406;-79
2022/05/16 10:44:58;;;;;;;18.38;4.00;;;25.10;92.10;;;;;;7345780;19;108197;-79
2022/05/16 10:47:30;;;;;;;12.07;4.35;;;24.90;93.40;;;;;;7342623;19;112962;-79
2022/05/16 10:50:20;;;;;;;9.00;4.43;;;24.60;93.90;;;;;;7345568;19;107225;-80
2022/05/16 10:53:01;;;;;;;13.77;4.25;;;24.50;94.40;;;;;;7349252;19;108332;-80
2022/05/16 10:55:39;;;;;;;9.40;4.60;;;24.40;94.70;;;;;;7344432;19;111100;-79
2022/05/16 10:58:15;;;;;;;9.25;4.45;;;24.50;94.60;;;;;;7343233;19;107748;-83
2022/05/16 11:01:07;;;;;;;16.70;4.38;;;24.40;94.90;;;;;;7344933;19;108913;-81
2022/05/16 11:03:55;;;;;;;9.55;4.97;;;24.30;95.20;;;;;;7345714;19;107495;-80
2022/05/16 11:06:37;;;;;;;15.25;4.97;;;24.20;95.90;;;;;;7344668;19;108480;-82
2022/05/16 11:09:30;;;;;;;8.63;5.45;;;24.00;96.30;;;;;;7344601;19;108968;-82
2022/05/16 11:12:23;;;;;;;8.57;5.05;;;23.90;96.70;;;;;;7341616;19;108263;-82
2022/05/16 11:15:10;;;;;;;8.88;5.63;;;23.80;97.30;;;;;;7349683;19;108204;-81
2022/05/16 11:17:43;;;;;;;9.27;5.57;;;23.70;98.10;;;;;;7343732;19;109698;-82
2022/05/16 11:20:21;;;;;;;12.85;5.90;;;23.50;98.50;;;;;;7344021;19;108111;-82
2022/05/16 11:23:14;;;;;;;8.05;5.28;;;23.50;98.90;;;;;;7344149;19;109030;-82
2022/05/16 11:26:01;;;;;;;6.93;5.70;;;23.50;99.40;;;;;;7343472;19;108494;-82
2022/05/16 11:28:32;;;;;;;;;;;23.40;99.50;;;;;;7344901;19;108426;-82
2022/05/16 11:31:11;;;;;;;9.85;6.30;;;23.30;99.40;;;;;;7347248;19;108951;-82
2022/05/16 11:33:51;;;;;;;11.38;6.20;;;23.20;99.90;;;;;;7342398;19;107105;-82
2022/05/16 11:36:45;;;;;;;12.25;6.40;;;23.20;99.90;;;;;;7342156;19;108207;-82
2022/05/16 11:39:24;;;;;;;12.88;6.50;;;23.30;99.90;;;;;;7347339;19;109308;-82
2022/05/16 11:42:15;;;;;;;12.48;5.80;;;23.30;99.90;;;;;;7343735;19;108617;-82
2022/05/16 11:44:56;;;;;;;7.05;5.78;;;23.50;99.90;;;;;;7340167;19;109077;-82
2022/05/16 11:47:37;;;;;;;10.05;6.57;;;23.70;99.90;;;;;;7342305;19;107969;-83
2022/05/16 11:50:51;;;;;;;9.95;6.10;;;23.80;99.90;;;;;;7341509;19;108544;-82
2022/05/16 11:53:50;;;;;;;12.50;6.00;;;24.00;99.50;;;;;;7341822;19;109010;-83
2022/05/16 12:02:30;;;;;;;9.50;4.80;;;24.00;97.90;;;;;;7341173;19;110765;-82
2022/05/16 12:05:12;;;;;;;9.15;4.63;;;24.00;97.30;;;;;;7348222;19;108287;-82
2022/05/16 12:07:44;;;;;;;7.20;4.15;;;24.10;97.10;;;;;;7340682;19;109434;-82
2022/05/16 12:10:14;;;;;;;7.97;4.10;;;24.20;96.60;;;;;;7341865;19;108029;-82
2022/05/16 12:12:48;;;;;;;6.43;3.80;;;24.30;96.10;;;;;;7342870;19;109122;-82
2022/05/16 12:15:24;;;;;;;9.95;3.55;;;24.50;96.00;;;;;;7341816;19;108744;-82
2022/05/16 12:18:05;;;;;;;9.45;3.90;;;24.50;95.70;;;;;;7342905;19;107500;-82
2022/05/16 12:20:37;;;;;;;6.97;3.33;;;24.70;95.30;;;;;;7340826;19;108546;-82
2022/05/16 12:23:07;;;;;;;7.28;3.13;;;24.80;95.10;;;;;;7342265;19;109314;-82
2022/05/16 12:25:41;;;;;;;11.30;3.40;;;24.90;94.30;;;;;;7342472;19;107950;-81
2022/05/16 12:28:17;;;;;;;7.05;3.33;;;24.80;94.30;;;;;;7346989;19;108301;-82
2022/05/16 12:30:54;;;;;;;6.32;2.97;;;24.80;93.90;;;;;;7338519;19;107930;-85
2022/05/16 12:33:42;;;;;;;9.48;3.28;;;24.80;94.00;;;;;;7338249;19;108979;-81
2022/05/16 12:36:14;;;;;;;5.25;2.92;;;24.70;93.30;;;;;;7339892;19;108903;-81
2022/05/16 12:38:51;;;;;;;9.48;2.80;;;24.70;93.20;;;;;;7338038;19;110965;-82
2022/05/16 12:41:38;;;;;;;;;;;24.70;92.90;;;;;;7342068;19;108110;-82
2022/05/16 12:44:18;;;;;;;7.47;3.00;;;24.50;92.80;;;;;;7345277;19;108972;-81
2022/05/16 12:47:23;;;;;;;8.43;2.78;;;24.60;93.20;;;;;;7339174;19;107684;-81
2022/05/16 12:50:25;;;;;;;8.02;2.88;;;24.60;93.00;;;;;;7341288;19;110977;-82
2022/05/16 12:53:20;;;;;;;8.93;2.58;;;24.60;93.10;;;;;;7344711;19;109139;-81
2022/05/16 12:56:07;;;;;;;9.45;2.53;;;24.70;92.80;;;;;;7337142;19;108461;-82
2022/05/16 12:58:50;;;;;;;10.48;2.15;;;24.60;92.50;;;;;;7346743;19;109345;-82
2022/05/16 13:01:44;;;;;;;8.00;2.75;;;24.50;92.10;;;;;;7344340;19;107919;-82
2022/05/16 13:04:33;;;;;;;6.57;2.60;;;24.40;92.80;;;;;;7344755;19;107470;-83
2022/05/16 13:07:07;;;;;;;10.75;2.50;;;24.50;92.40;;;;;;7347051;19;110942;-84
2022/05/16 13:09:53;;;;;;;7.18;2.55;;;24.60;92.10;;;;;;7342255;19;107445;-84
2022/05/16 13:13:03;;;;;;;22.17;2.85;;;24.80;92.10;;;;;;7347919;19;108620;-83
2022/05/16 13:15:46;;;;;;;6.25;2.55;;;24.90;91.90;;;;;;7347468;19;112359;-84
2022/05/16 13:18:23;;;;;;;7.68;2.40;;;24.90;92.00;;;;;;7353445;19;107578;-83
2022/05/16 13:20:54;;;;;;;7.93;2.80;;;25.00;91.60;;;;;;7347579;19;108211;-83
2022/05/16 13:23:21;;;;;;;10.02;2.88;;;25.00;91.70;;;;;;7345766;19;108180;-84
2022/05/16 13:31:33;;;;;;;12.82;2.90;;;24.90;91.70;;;;;;7346972;19;108249;-84
2022/05/16 13:34:03;;;;;;;10.77;2.30;;;25.00;91.20;;;;;;7346290;19;108593;-84
2022/05/16 13:36:30;;;;;;;10.10;2.17;;;25.00;91.20;;;;;;7346167;19;107932;-83
2022/05/16 13:39:09;;;;;;;18.23;2.30;;;25.00;91.00;;;;;;7351084;19;107936;-83